METAR Data
IDs: Format: Raw Decoded Include TAF

Data at: 2136 UTC 08 Aug 2020

KCKI 082115Z AUTO 00000KT 5SM HZ CLR 32/23 A3009 RMK AO2
KCKI 082055Z AUTO 00000KT 7SM CLR 32/22 A3009 RMK AO2
KCKI 082035Z AUTO 00000KT 7SM SCT033 SCT040 SCT050 31/23 A3009 RMK AO2
KCKI 082015Z AUTO 00000KT 7SM CLR 31/23 A3009 RMK AO2
KCKI 081955Z AUTO 00000KT 5SM HZ CLR 32/22 A3009 RMK AO2
KCKI 081935Z AUTO 22003KT 5SM HZ SCT031 32/23 A3010 RMK AO2
KCKI 081915Z AUTO 00000KT 7SM CLR 31/23 A3011 RMK AO2
KCKI 081855Z AUTO 00000KT 7SM SCT035 SCT040 31/23 A3011 RMK AO2
KCKI 081835Z AUTO 00000KT 5SM HZ SCT035 SCT044 BKN050 30/23 A3012 RMK AO2
KCKI 081815Z AUTO 00000KT 5SM HZ SCT026 SCT035 31/23 A3013 RMK AO2
KCKI 081755Z AUTO 00000KT 7SM SCT028 BKN037 BKN046 30/25 A3013 RMK AO2
KCKI 081735Z AUTO 00000KT 5SM HZ SCT030 BKN037 BKN046 30/23 A3014 RMK AO2
KCKI 081715Z AUTO 00000KT 7SM BKN026 30/23 A3014 RMK AO2
KCKI 081655Z AUTO 00000KT 7SM BKN026 30/24 A3014 RMK AO2
KCKI 081635Z AUTO 00000KT 7SM BKN024 29/23 A3015 RMK AO2
KCKI 081615Z AUTO 00000KT 7SM BKN022 29/23 A3015 RMK AO2
KCKI 081555Z AUTO 00000KT 7SM BKN022 29/23 A3015 RMK AO2
KCKI 081535Z AUTO 00000KT 7SM OVC020 28/23 A3015 RMK AO2
KCKI 081515Z AUTO 00000KT 7SM BKN018 27/23 A3016 RMK AO2
KCKI 081455Z AUTO 21003KT 7SM SCT016 27/23 A3016 RMK AO2 LTG DSNT E
KCKI 081435Z AUTO 00000KT 7SM SCT014 27/22 A3016 RMK AO2
KCKI 081415Z AUTO 00000KT 7SM BKN012 27/23 A3015 RMK AO2 LTG DSNT E
KCKI 081355Z AUTO 17004KT 7SM BKN008 26/23 A3015 RMK AO2
KCKI 081335Z AUTO 20005KT 7SM BKN006 26/24 A3015 RMK AO2
KCKI 081315Z AUTO 00000KT 5SM BR BKN006 25/23 A3015 RMK AO2
KCKI 081255Z AUTO 00000KT 5SM BR CLR 25/23 A3016 RMK AO2
KCKI 081235Z AUTO 00000KT 7SM CLR 23/22 A3016 RMK AO2
KCKI 081215Z AUTO 10003KT 5SM BR CLR 22/21 A3016 RMK AO2
KCKI 081155Z AUTO 00000KT 7SM CLR 21/21 A3016 RMK AO2
KCKI 081135Z AUTO 00000KT 4SM BR CLR 21/20 A3015 RMK AO2 LTG DSNT SE
KCKI 081115Z AUTO 00000KT 5SM BR CLR 20/20 A3014 RMK AO2
KCKI 081055Z AUTO 00000KT 5SM BR CLR 20/19 A3013 RMK AO2
KCKI 081035Z AUTO 00000KT 5SM BR SCT001 20/20 A3013 RMK AO2 LTG DSNT SE
KCKI 081015Z AUTO 00000KT 5SM BR SCT001 20/20 A3013 RMK AO2 LTG DSNT SE
KCKI 080955Z AUTO 00000KT 5SM BR CLR 20/20 A3013 RMK AO2 LTG DSNT SE
KCKI 080935Z AUTO 00000KT 7SM SCT065 20/20 A3012 RMK AO2
KCKI 080915Z AUTO 00000KT 7SM CLR 20/20 A3011 RMK AO2
KCKI 080855Z AUTO 00000KT 7SM CLR 21/20 A3011 RMK AO2
KCKI 080835Z AUTO 00000KT 7SM CLR 21/20 A3011 RMK AO2
KCKI 080815Z AUTO 00000KT 7SM CLR 21/20 A3011 RMK AO2 LTG DSNT E AND SE
KCKI 080755Z AUTO 00000KT 5SM BR CLR 21/20 A3011 RMK AO2 LTG DSNT E AND SE
KCKI 080735Z AUTO 00000KT 5SM BR CLR 21/20 A3011 RMK AO2 LTG DSNT E AND SE
KCKI 080715Z AUTO 00000KT 5SM BR CLR 21/20 A3011 RMK AO2 LTG DSNT SE
KCKI 080655Z AUTO 00000KT 7SM CLR 21/20 A3011 RMK AO2 LTG DSNT SE
KCKI 080635Z AUTO 00000KT 7SM CLR 21/20 A3011 RMK AO2 LTG DSNT SE
KCKI 080615Z AUTO 00000KT 5SM BR CLR 21/20 A3011 RMK AO2 LTG DSNT SE
KCKI 080555Z AUTO 00000KT 7SM CLR 21/20 A3011 RMK AO2 LTG DSNT E AND SE
KCKI 080535Z AUTO 00000KT 7SM CLR 21/20 A3011 RMK AO2 LTG DSNT E AND SE
KCKI 080515Z AUTO 00000KT 7SM CLR 21/20 A3011 RMK AO2 LTG DSNT E AND SE
KCKI 080455Z AUTO 00000KT 7SM CLR 21/20 A3012 RMK AO2 LTG DSNT E
KCKI 080435Z AUTO 00000KT 7SM CLR 21/20 A3012 RMK AO2 LTG DSNT E AND SE
KCKI 080415Z AUTO 00000KT 7SM CLR 21/20 A3011 RMK AO2 LTG DSNT E AND SE
KCKI 080355Z AUTO 00000KT 7SM CLR 21/20 A3012 RMK AO2 LTG DSNT E AND SE P0001
KCKI 080335Z AUTO 00000KT 7SM CLR 21/20 A3013 RMK AO2 LTG DSNT E AND SE P0001
KCKI 080315Z AUTO 00000KT 7SM -RA CLR 21/20 A3013 RMK AO2 LTG DSNT NE THRU SE
KCKI 080255Z AUTO 00000KT 7SM VCTS CLR 21/20 A3014 RMK AO2 LTG DSNT E AND SE
KCKI 080235Z AUTO 00000KT 10SM CLR 21/20 A3013 RMK AO2 LTG DSNT E THRU S
KCKI 080215Z AUTO 09007KT 10SM -RA SCT050 SCT065 BKN090 21/21 A3014 RMK AO2 LTG DSNT ALQDS
KCKI 080155Z AUTO 08004KT 10SM -RA SCT039 BKN070 OVC075 21/21 A3013 RMK AO2 LTG DSNT ALQDS P0091
KCKI 080135Z AUTO 08006KT 10SM TSRA SCT015 BKN036 OVC065 21/20 A3014 RMK AO2 LTG DSNT ALQDS P0088
KCKI 080115Z AUTO 33005KT 3SM +TSRA SCT012 BKN018 OVC048 22/21 A3016 RMK AO2 LTG DSNT ALQDS P0019
KCKI 080055Z AUTO 09003KT 7SM TSRA BKN028 OVC034 22/22 A3014 RMK AO2 LTG DSNT ALQDS P0037
KCKI 080035Z AUTO 31008KT 10SM TSRA SCT018 BKN028 OVC036 23/22 A3010 RMK AO2 LTG DSNT ALQDS P0027
KCKI 080015Z AUTO 01008KT 2 1/2SM +TSRA SCT017 SCT038 OVC055 23/22 A3009 RMK AO2 VIS 1V5 LTG DSNT ALQDS P0015
KCKI 072355Z AUTO 00000KT 5SM TSHZ SCT038 BKN048 OVC055 25/20 A3005 RMK AO2 LTG DSNT ALQDS
KCKI 072335Z AUTO 29009G19KT 5SM TSHZ BKN032 OVC038 25/19 A3006 RMK AO2 LTG DSNT ALQDS
KCKI 072315Z AUTO 30006KT 4SM VCTSHZ BKN032 BKN044 OVC050 26/20 A3004 RMK AO2 LTG DSNT ALQDS
KCKI 072255Z AUTO 00000KT 7SM VCTS SCT034 BKN050 31/22 A3004 RMK AO2 LTG DSNT SW THRU N
KCKI 072235Z AUTO 00000KT 5SM VCTSHZ SCT040 SCT046 31/22 A3004 RMK AO2 LTG DSNT SW THRU N
KCKI 072215Z AUTO 22003KT 7SM SCT040 SCT046 SCT055 32/22 A3004 RMK AO2 LTG DSNT W THRU N
KCKI 072155Z AUTO 23003KT 7SM SCT042 SCT055 SCT070 32/21 A3004 RMK AO2 LTG DSNT N AND NW
KCKI 072135Z AUTO 23005KT 7SM SCT042 SCT048 33/22 A3004 RMK AO2 LTG DSNT NW
KCKI 072115Z AUTO 19005KT 5SM HZ CLR 33/21 A3003 RMK AO2 LTG DSNT N AND NW
KCKI 072055Z AUTO 19004KT 7SM CLR 32/21 A3002 RMK AO2 LTG DSNT W
KCKI 072035Z AUTO 20003KT 5SM HZ CLR 32/21 A3001 RMK AO2 LTG DSNT W AND NW
KCKI 072015Z AUTO 00000KT 7SM CLR 32/20 A3001 RMK AO2 LTG DSNT W
KCKI 071955Z AUTO 20003KT 7SM CLR 32/21 A3003 RMK AO2 LTG DSNT W
KCKI 071935Z AUTO 00000KT 5SM HZ CLR 32/21 A3004 RMK AO2 LTG DSNT W AND NW
KCKI 071915Z AUTO 00000KT 7SM SCT040 SCT046 32/21 A3005 RMK AO2
KCKI 071855Z AUTO 16003KT 7SM BKN038 OVC045 32/22 A3006 RMK AO2
KCKI 071835Z AUTO 14003KT 7SM BKN038 BKN045 32/23 A3007 RMK AO2 LTG DSNT NW
KCKI 071815Z AUTO 15004KT 7SM SCT036 32/22 A3007 RMK AO2
KCKI 071755Z AUTO 00000KT 7SM SCT034 31/22 A3007 RMK AO2
KCKI 071735Z AUTO 11006KT 7SM SCT032 SCT039 31/23 A3007 RMK AO2
KCKI 071715Z AUTO 17004KT 7SM SCT030 SCT037 31/23 A3008 RMK AO2
KCKI 071655Z AUTO 00000KT 7SM SCT028 31/23 A3009 RMK AO2
KCKI 071635Z AUTO 13005KT 7SM CLR 31/23 A3009 RMK AO2
KCKI 071615Z AUTO 14004KT 5SM HZ CLR 30/22 A3009 RMK AO2
KCKI 071555Z AUTO 13004KT 7SM SCT024 30/23 A3010 RMK AO2
KCKI 071535Z AUTO 18005KT 7SM SCT024 30/23 A3010 RMK AO2
KCKI 071515Z AUTO 12007KT 5SM HZ CLR 29/23 A3011 RMK AO2
KCKI 071455Z AUTO 13004KT 7SM SCT023 29/22 A3011 RMK AO2
KCKI 071435Z AUTO 12005KT 5SM HZ SCT023 28/23 A3010 RMK AO2
KCKI 071415Z AUTO 18005KT 5SM HZ CLR 28/22 A3010 RMK AO2 LTG DSNT E
KCKI 071355Z AUTO 00000KT 4SM HZ CLR 28/22 A3011 RMK AO2 LTG DSNT E AND SE
KCKI 071335Z AUTO 00000KT 5SM HZ CLR 27/22 A3010 RMK AO2 LTG DSNT E
KCKI 071315Z AUTO 00000KT 5SM HZ CLR 27/22 A3010 RMK AO2 LTG DSNT E
KCKI 071255Z AUTO 00000KT 7SM CLR 26/23 A3010 RMK AO2 LTG DSNT E AND SE
KCKI 071235Z AUTO 00000KT 4SM VCTS BR CLR 25/24 A3010 RMK AO2 LTG DSNT E
KCKI 071215Z AUTO 00000KT 7SM CLR 25/23 A3009 RMK AO2 LTG DSNT E AND SE
KCKI 071155Z AUTO 00000KT 5SM VCTS BR CLR 23/22 A3008 RMK AO2 LTG DSNT E AND SE
KCKI 071135Z AUTO 00000KT 5SM VCTS BR SCT002 22/22 A3007 RMK AO2 LTG DSNT E AND SE
KCKI 071115Z AUTO 00000KT 4SM BR BKN002 22/21 A3008 RMK AO2 LTG DSNT E AND SE
KCKI 071055Z AUTO 00000KT 3SM BR OVC002 22/21 A3007 RMK AO2 LTG DSNT SE
KCKI 071035Z AUTO 00000KT 1/4SM FG OVC002 22/21 A3007 RMK AO2 LTG DSNT SE AND S
KCKI 071015Z AUTO 00000KT 1/4SM FG OVC002 22/21 A3007 RMK AO2 LTG DSNT SE AND S
KCKI 070955Z AUTO 00000KT 1/4SM VCTS FG OVC002 22/21 A3006 RMK AO2 LTG DSNT E